Dal Kalahari — A8FQ8 — position and weather

sailwx.info

Track history (hours):
 
Tides and Currents Weather Stations Pressure Air Temp Water Temp Dewpoint Dewpoint Depression Visibility Wind Speed Wind Dir Waves Ship Positions

Dal Kalahari

Last reported at 2014-Sep-21 21:23 UTC. Time now 2014-Sep-23 14:22 UTC.
Position S 37°25' E 150°11'.

Length 266 m; beam 37 m; draft 12.5 m.

Type: Ship (hazmat cat C). MMSI: 636090797.

Date/timePositionNaut miles runAvg speedWind from/ knotsBaromVisibWave heightAir tempDewpointWater temp
2014-Sep-21 21:23S 37°25' E 150°11'1515.0
2014-Sep-21 20:25S 37°38' E 150°04'1415.9
2014-Sep-21 19:33S 37°47' E 149°50'1716.5
2014-Sep-21 18:33S 37°57' E 149°34'6816.4
2014-Sep-21 14:23S 38°40' E 148°26'6616.3
2014-Sep-21 10:21S 39°06' E 147°08'1315.9
2014-Sep-21 09:33S 39°10' E 146°53'1616.1
2014-Sep-21 08:33S 39°16' E 146°33'1616.2
2014-Sep-21 07:33S 39°17' E 146°12'1616.2
2014-Sep-21 06:33S 39°08' E 145°55'1616.3
2014-Sep-21 05:33S 38°60' E 145°37'5914.6
2014-Sep-21 01:31S 38°23' E 144°38'122 2.9
2014-Sep-19 07:26S 38°58' E 142°08'1213.4
2014-Sep-19 06:33S 38°57' E 141°53'  
Track history (hours):
 
Tides and Currents Weather Stations Pressure Air Temp Water Temp Dewpoint Dewpoint Depression Visibility Wind Speed Wind Dir Waves Ship Positions

Dal Kalahari

Last reported at 2014-Sep-21 21:23 UTC. Time now 2014-Sep-23 14:22 UTC.
Position S 37°25' E 150°11'.

Length 266 m; beam 37 m; draft 12.5 m.

Type: Ship (hazmat cat C). MMSI: 636090797.

Date/timePositionNaut miles runAvg speedWind from/ knotsBaromVisibWave heightAir tempDewpointWater temp
2014-Sep-21 21:23S 37°25' E 150°11'1515.0
2014-Sep-21 20:25S 37°38' E 150°04'1415.9
2014-Sep-21 19:33S 37°47' E 149°50'1716.5
2014-Sep-21 18:33S 37°57' E 149°34'6816.4
2014-Sep-21 14:23S 38°40' E 148°26'6616.3
2014-Sep-21 10:21S 39°06' E 147°08'1315.9
2014-Sep-21 09:33S 39°10' E 146°53'1616.1
2014-Sep-21 08:33S 39°16' E 146°33'1616.2
2014-Sep-21 07:33S 39°17' E 146°12'1616.2
2014-Sep-21 06:33S 39°08' E 145°55'1616.3
2014-Sep-21 05:33S 38°60' E 145°37'5914.6
2014-Sep-21 01:31S 38°23' E 144°38'122 2.9
2014-Sep-19 07:26S 38°58' E 142°08'1213.4
2014-Sep-19 06:33S 38°57' E 141°53'  

Dump ship's entire track history